Terminal Aerodrome Forecast
Issued by NWS Sterling, VA

Current Version | Previous Version | Text Only | Print | Product List | Glossary Off
Versions: 1 2 3 4 5 6 7 8 9 10 11 12 13 14 15 16 17 18 19 20 21 22 23 24 25

000
FTUS41 KLWX 212322
TAFDCA
TAF
KDCA 212322Z 2200/2224 05004KT P6SM OVC010
     FM220100 02004KT P6SM OVC015
     FM220500 31004KT P6SM BKN025
     FM221000 31008KT P6SM FEW250
     FM221800 28012KT P6SM FEW250=

USA.gov is the U.S. government's official web portal to all federal, state and local government web resources and services.